createdAt,value
2018-12-13T00:02:07.776Z,1.90
2018-12-13T00:04:35.329Z,2.00
2018-12-13T00:07:02.862Z,1.90
2018-12-13T00:09:30.416Z,1.90
2018-12-13T00:11:57.934Z,1.90
2018-12-13T00:14:25.498Z,1.90
2018-12-13T00:16:53.131Z,1.80
2018-12-13T00:19:20.764Z,1.80
2018-12-13T00:21:48.278Z,1.80
2018-12-13T00:24:15.827Z,1.80
2018-12-13T00:26:43.356Z,1.80
2018-12-13T00:29:10.900Z,1.70
2018-12-13T00:31:38.424Z,1.60
2018-12-13T00:34:05.978Z,1.60
2018-12-13T00:36:39.518Z,1.70
2018-12-13T00:39:04.055Z,1.70
2018-12-13T00:41:31.571Z,1.70
2018-12-13T00:43:59.169Z,1.80
2018-12-13T00:46:26.755Z,1.70
2018-12-13T00:48:54.308Z,1.50
2018-12-13T00:51:21.835Z,1.50
2018-12-13T00:53:49.399Z,1.60
2018-12-13T00:56:16.925Z,1.60
2018-12-13T00:58:44.473Z,1.60
2018-12-13T01:01:11.996Z,1.60
2018-12-13T01:03:39.542Z,1.60
2018-12-13T01:06:07.147Z,1.60
2018-12-13T01:08:34.687Z,1.70
2018-12-13T01:11:02.213Z,1.60
2018-12-13T01:13:29.754Z,1.60
2018-12-13T01:15:57.282Z,1.50
2018-12-13T01:18:24.833Z,1.60
2018-12-13T01:20:52.346Z,1.60
2018-12-13T01:23:19.887Z,1.70
2018-12-13T01:25:47.408Z,1.70
2018-12-13T01:28:14.972Z,1.70
2018-12-13T01:30:42.491Z,1.70
2018-12-13T01:33:10.010Z,1.70
2018-12-13T01:35:37.560Z,1.70
2018-12-13T01:38:05.080Z,1.70
2018-12-13T01:40:32.632Z,1.80
2018-12-13T01:43:00.152Z,1.70
2018-12-13T01:45:27.708Z,1.70
2018-12-13T01:47:55.223Z,1.70
2018-12-13T01:50:22.776Z,1.70
2018-12-13T01:52:50.290Z,1.70
2018-12-13T01:55:17.835Z,1.70
2018-12-13T01:57:45.351Z,1.70
2018-12-13T02:00:13.279Z,1.70
2018-12-13T02:02:40.803Z,1.70
2018-12-13T02:05:08.352Z,1.80
2018-12-13T02:07:35.955Z,1.70
2018-12-13T02:10:04.171Z,1.70
2018-12-13T02:12:31.695Z,1.70
2018-12-13T02:14:59.240Z,1.70
2018-12-13T02:17:26.760Z,1.70
2018-12-13T02:19:54.316Z,1.70
2018-12-13T02:22:21.833Z,1.60
2018-12-13T02:24:49.433Z,1.70
2018-12-13T02:27:17.020Z,1.60
2018-12-13T02:29:44.574Z,1.70
2018-12-13T02:32:12.099Z,1.70
2018-12-13T02:34:39.616Z,1.80
2018-12-13T02:37:07.283Z,1.70
2018-12-13T02:39:34.810Z,1.70
2018-12-13T02:42:02.357Z,1.60
2018-12-13T02:44:29.880Z,1.70
2018-12-13T02:46:57.427Z,1.60
2018-12-13T02:49:24.944Z,1.60
2018-12-13T02:51:52.490Z,1.60
2018-12-13T02:54:20.004Z,1.60
2018-12-13T02:56:47.549Z,1.60
2018-12-13T02:59:15.138Z,1.60
2018-12-13T03:01:42.689Z,1.60
2018-12-13T03:04:10.215Z,1.60
2018-12-13T03:06:37.776Z,1.50
2018-12-13T03:09:06.749Z,1.50
2018-12-13T03:11:34.373Z,1.50
2018-12-13T03:14:01.907Z,1.50
2018-12-13T03:16:29.458Z,1.50
2018-12-13T03:18:56.984Z,1.60
2018-12-13T03:21:24.548Z,1.50
2018-12-13T03:23:52.070Z,1.50
2018-12-13T03:26:19.597Z,1.50
2018-12-13T03:28:47.147Z,1.50
2018-12-13T03:31:14.671Z,1.50
2018-12-13T03:33:42.220Z,1.50
2018-12-13T03:36:09.745Z,1.40
2018-12-13T03:38:37.410Z,1.40
2018-12-13T03:41:04.928Z,1.50
2018-12-13T03:43:32.479Z,1.40
2018-12-13T03:45:59.995Z,1.40
2018-12-13T03:48:27.534Z,1.40
2018-12-13T03:50:55.061Z,1.40
2018-12-13T03:53:22.605Z,1.40
2018-12-13T03:55:50.207Z,1.40
2018-12-13T03:58:17.760Z,1.40
2018-12-13T04:00:45.280Z,1.50
2018-12-13T04:03:12.908Z,1.30
2018-12-13T04:05:40.492Z,1.40
2018-12-13T04:08:08.040Z,1.30
2018-12-13T04:10:35.571Z,1.30
2018-12-13T04:13:03.116Z,1.40
2018-12-13T04:15:30.706Z,1.40
2018-12-13T04:17:58.255Z,1.40
2018-12-13T04:20:25.776Z,1.40
2018-12-13T04:22:53.325Z,1.30
2018-12-13T04:25:20.847Z,1.20
2018-12-13T04:27:48.399Z,1.20
2018-12-13T04:30:15.923Z,1.10
2018-12-13T04:32:43.471Z,1.10
2018-12-13T04:35:10.985Z,1.20
2018-12-13T04:37:38.540Z,1.10
2018-12-13T04:40:06.148Z,1.10
2018-12-13T04:42:33.667Z,1.10
2018-12-13T04:45:01.220Z,1.10
2018-12-13T04:47:28.742Z,1.00
2018-12-13T04:49:56.296Z,1.00
2018-12-13T04:52:23.819Z,1.00
2018-12-13T04:54:51.878Z,1.00
2018-12-13T04:57:19.410Z,1.00
2018-12-13T04:59:46.946Z,1.10
2018-12-13T05:02:14.461Z,1.00
2018-12-13T05:04:42.012Z,1.00
2018-12-13T05:07:09.537Z,1.00
2018-12-13T05:09:37.088Z,0.90
2018-12-13T05:12:04.617Z,0.90
2018-12-13T05:14:32.163Z,0.90
2018-12-13T05:16:59.684Z,0.90
2018-12-13T05:19:27.237Z,0.90
2018-12-13T05:21:54.764Z,0.80
2018-12-13T05:24:22.315Z,0.80
2018-12-13T05:26:49.841Z,0.80
2018-12-13T05:29:17.391Z,0.80
2018-12-13T05:31:44.911Z,0.80
2018-12-13T05:34:12.460Z,0.80
2018-12-13T05:36:39.986Z,0.90
2018-12-13T05:39:07.540Z,0.70
2018-12-13T05:41:35.070Z,0.80
2018-12-13T05:44:02.615Z,0.70
2018-12-13T05:46:30.130Z,0.70
2018-12-13T05:48:57.675Z,0.70
2018-12-13T05:51:25.209Z,0.60
2018-12-13T05:53:52.756Z,0.70
2018-12-13T05:56:20.281Z,0.70
2018-12-13T05:58:47.835Z,0.70
2018-12-13T06:01:15.355Z,0.70
2018-12-13T06:03:42.909Z,0.60
2018-12-13T06:06:10.431Z,0.60
2018-12-13T06:08:37.981Z,0.60
2018-12-13T06:11:05.504Z,0.70
2018-12-13T06:13:33.023Z,0.60
2018-12-13T06:16:00.566Z,0.50
2018-12-13T06:18:28.090Z,0.50
2018-12-13T06:20:55.639Z,0.50
2018-12-13T06:23:23.169Z,0.50
2018-12-13T06:25:50.724Z,0.50
2018-12-13T06:28:18.247Z,0.50
2018-12-13T06:30:45.796Z,0.60
2018-12-13T06:33:13.316Z,0.60
2018-12-13T06:35:40.866Z,0.50
2018-12-13T06:38:08.415Z,0.40
2018-12-13T06:40:35.959Z,0.40
2018-12-13T06:43:03.488Z,0.50
2018-12-13T06:45:31.048Z,0.50
2018-12-13T06:48:00.655Z,0.40
2018-12-13T06:50:28.203Z,0.40
2018-12-13T06:52:55.719Z,0.50
2018-12-13T06:55:24.016Z,0.50
2018-12-13T06:57:52.396Z,0.40
2018-12-13T07:00:20.115Z,0.50
2018-12-13T07:02:47.647Z,0.50
2018-12-13T07:05:15.195Z,0.50
2018-12-13T07:07:42.740Z,0.50
2018-12-13T07:10:10.386Z,0.40
2018-12-13T07:12:37.903Z,0.50
2018-12-13T07:15:05.815Z,0.50
2018-12-13T07:17:33.335Z,0.50
2018-12-13T07:20:00.881Z,0.40
2018-12-13T07:22:28.395Z,0.40
2018-12-13T07:24:55.949Z,0.40
2018-12-13T07:27:23.466Z,0.40
2018-12-13T07:29:51.022Z,0.50
2018-12-13T07:32:18.551Z,0.50
2018-12-13T07:34:46.108Z,0.60
2018-12-13T07:37:13.698Z,0.50
2018-12-13T07:39:41.315Z,0.50
2018-12-13T07:42:08.831Z,0.50
2018-12-13T07:44:36.379Z,0.50
2018-12-13T07:47:03.899Z,0.50
2018-12-13T07:49:31.444Z,0.50
2018-12-13T07:51:58.969Z,0.50
2018-12-13T07:54:26.520Z,0.40
2018-12-13T07:56:54.067Z,0.40
2018-12-13T07:59:21.653Z,0.30
2018-12-13T08:01:49.263Z,0.30
2018-12-13T08:04:16.803Z,0.30
2018-12-13T08:06:44.355Z,0.40
2018-12-13T08:09:14.272Z,0.40
2018-12-13T08:11:41.991Z,0.50
2018-12-13T08:14:09.529Z,0.50
2018-12-13T08:16:37.086Z,0.40
2018-12-13T08:19:04.612Z,0.50
2018-12-13T08:21:32.343Z,0.50
2018-12-13T08:23:59.868Z,0.50
2018-12-13T08:26:27.428Z,0.50
2018-12-13T08:28:55.003Z,0.50
2018-12-13T08:31:22.564Z,0.60
2018-12-13T08:33:50.089Z,0.60
2018-12-13T08:36:17.640Z,0.50
2018-12-13T08:38:45.351Z,0.60
2018-12-13T08:41:12.905Z,0.60
2018-12-13T08:43:40.442Z,0.70
2018-12-13T08:46:07.995Z,0.80
2018-12-13T08:48:35.524Z,0.70
2018-12-13T08:51:03.072Z,0.80
2018-12-13T08:53:30.596Z,0.80
2018-12-13T08:55:58.153Z,0.90
2018-12-13T08:58:25.684Z,0.80
2018-12-13T09:00:53.226Z,0.80
2018-12-13T09:03:20.757Z,0.60
2018-12-13T09:05:48.430Z,0.60
2018-12-13T09:08:15.965Z,0.60
2018-12-13T09:10:43.523Z,0.70
2018-12-13T09:13:11.042Z,0.70
2018-12-13T09:15:38.587Z,0.70
2018-12-13T09:18:06.114Z,0.70
2018-12-13T09:20:33.667Z,0.80
2018-12-13T09:23:01.205Z,0.90
2018-12-13T09:25:28.755Z,0.80
2018-12-13T09:27:56.288Z,0.70
2018-12-13T09:30:23.840Z,0.80
2018-12-13T09:32:51.361Z,0.80
2018-12-13T09:35:18.915Z,0.80
2018-12-13T09:37:47.689Z,0.90
2018-12-13T09:40:15.554Z,0.90
2018-12-13T09:42:43.108Z,0.80
2018-12-13T09:45:10.634Z,0.70
2018-12-13T09:47:38.189Z,0.70
2018-12-13T09:50:05.907Z,0.80
2018-12-13T09:52:33.454Z,0.90
2018-12-13T09:55:05.639Z,0.90
2018-12-13T09:57:33.768Z,1.00
2018-12-13T10:00:02.110Z,1.10
2018-12-13T10:02:29.682Z,1.00
2018-12-13T10:04:57.215Z,1.10
2018-12-13T10:07:24.771Z,1.30
2018-12-13T10:09:52.320Z,1.40
2018-12-13T10:12:19.874Z,1.40
2018-12-13T10:14:47.413Z,1.50
2018-12-13T10:17:15.038Z,1.60
2018-12-13T10:19:42.623Z,1.50
2018-12-13T10:22:11.877Z,1.60
2018-12-13T10:24:39.639Z,1.60
2018-12-13T10:27:08.459Z,1.60
2018-12-13T10:29:36.635Z,1.60
2018-12-13T10:32:04.986Z,1.60
2018-12-13T10:34:32.523Z,1.50
2018-12-13T10:37:00.083Z,1.50
2018-12-13T10:39:27.624Z,1.60
2018-12-13T10:41:55.179Z,1.70
2018-12-13T10:44:24.695Z,1.60
2018-12-13T10:46:54.708Z,1.60
2018-12-13T10:49:25.312Z,1.70
2018-12-13T10:51:53.511Z,1.70
2018-12-13T10:54:21.035Z,1.70
2018-12-13T10:56:48.596Z,1.70
2018-12-13T10:59:16.219Z,1.80
2018-12-13T11:01:45.750Z,1.80
2018-12-13T11:04:13.279Z,1.80
2018-12-13T11:06:40.835Z,1.70
2018-12-13T11:09:08.363Z,1.80
2018-12-13T11:11:36.373Z,1.80
2018-12-13T11:14:03.902Z,1.60
2018-12-13T11:16:31.480Z,1.60
2018-12-13T11:18:59.010Z,1.50
2018-12-13T11:21:26.563Z,1.50
2018-12-13T11:23:54.098Z,1.50
2018-12-13T11:26:21.668Z,1.60
2018-12-13T11:29:01.031Z,1.70
2018-12-13T11:31:28.584Z,1.60
2018-12-13T11:33:56.112Z,1.60
2018-12-13T11:36:23.673Z,1.70
2018-12-13T11:38:51.214Z,1.70
2018-12-13T11:41:18.745Z,1.70
2018-12-13T11:43:46.304Z,1.70
2018-12-13T11:46:13.844Z,1.80
2018-12-13T11:48:42.364Z,1.80
2018-12-13T11:51:09.894Z,1.90
2018-12-13T11:53:37.623Z,2.00
2018-12-13T11:56:05.649Z,2.10
2018-12-13T11:58:33.425Z,2.00
2018-12-13T12:01:00.955Z,1.80
2018-12-13T12:03:29.332Z,1.80
2018-12-13T12:05:57.058Z,1.80
2018-12-13T12:08:24.621Z,1.90
2018-12-13T12:10:52.147Z,1.90
2018-12-13T12:13:19.746Z,2.00
2018-12-13T12:15:47.287Z,2.00
2018-12-13T12:18:14.847Z,1.80
2018-12-13T12:20:42.380Z,1.90
2018-12-13T12:23:09.943Z,2.00
2018-12-13T12:25:37.476Z,2.10
2018-12-13T12:28:05.049Z,2.00
2018-12-13T12:30:32.569Z,2.00
2018-12-13T12:33:00.129Z,2.20
2018-12-13T12:35:27.672Z,2.30
2018-12-13T12:37:55.228Z,2.40
2018-12-13T12:40:22.921Z,2.40
2018-12-13T12:42:50.479Z,2.40
2018-12-13T12:45:20.086Z,2.50
2018-12-13T12:47:50.018Z,2.50
2018-12-13T12:50:17.711Z,2.40
2018-12-13T12:52:46.168Z,2.50
2018-12-13T12:55:14.151Z,2.50
2018-12-13T12:57:41.687Z,2.50
2018-12-13T13:00:09.512Z,2.60
2018-12-13T13:02:37.431Z,2.60
2018-12-13T13:05:05.460Z,2.60
2018-12-13T13:07:32.988Z,2.50
2018-12-13T13:10:00.628Z,2.40
2018-12-13T13:12:28.203Z,2.20
2018-12-13T13:14:55.780Z,2.20
2018-12-13T13:17:25.747Z,2.10
2018-12-13T13:19:53.451Z,2.20
2018-12-13T13:22:20.985Z,2.20
2018-12-13T13:24:48.540Z,2.20
2018-12-13T13:27:16.075Z,2.20
2018-12-13T13:29:43.640Z,2.30
2018-12-13T13:32:11.171Z,2.40
2018-12-13T13:34:38.731Z,2.40
2018-12-13T13:37:06.290Z,2.20
2018-12-13T13:39:33.851Z,2.20
2018-12-13T13:42:01.374Z,2.20
2018-12-13T13:44:30.908Z,2.10
2018-12-13T13:46:58.452Z,2.10
2018-12-13T13:49:26.012Z,2.00
2018-12-13T13:51:53.544Z,2.00
2018-12-13T13:54:21.094Z,2.00
2018-12-13T13:56:48.619Z,1.90
2018-12-13T13:59:16.191Z,2.00
2018-12-13T14:01:43.722Z,1.90
2018-12-13T14:04:11.252Z,1.90
2018-12-13T14:06:38.811Z,1.90
2018-12-13T14:09:07.008Z,1.90
2018-12-13T14:11:34.556Z,2.00
2018-12-13T14:14:02.083Z,1.90
2018-12-13T14:16:29.642Z,1.90
2018-12-13T14:18:57.172Z,1.90
2018-12-13T14:21:24.753Z,2.00
2018-12-13T14:23:52.289Z,1.80
2018-12-13T14:26:20.229Z,1.80
2018-12-13T14:28:47.839Z,1.70
2018-12-13T14:31:15.391Z,1.70
2018-12-13T14:33:42.915Z,1.70
2018-12-13T14:36:10.476Z,1.80
2018-12-13T14:38:38.016Z,1.80
2018-12-13T14:41:05.603Z,1.70
2018-12-13T14:43:33.225Z,1.70
2018-12-13T14:46:00.783Z,1.60
2018-12-13T14:48:28.316Z,1.70
2018-12-13T14:50:55.884Z,1.80
2018-12-13T14:53:23.430Z,1.70
2018-12-13T14:55:50.985Z,1.70
2018-12-13T14:58:18.513Z,1.70
2018-12-13T15:00:46.076Z,1.70
2018-12-13T15:03:13.604Z,1.70
2018-12-13T15:05:41.151Z,1.70
2018-12-13T15:08:08.687Z,1.70
2018-12-13T15:10:36.242Z,1.70
2018-12-13T15:13:03.777Z,1.80
2018-12-13T15:15:31.339Z,1.80
2018-12-13T15:17:58.871Z,1.80
2018-12-13T15:20:26.419Z,1.70
2018-12-13T15:22:54.273Z,1.70
2018-12-13T15:25:22.515Z,1.80
2018-12-13T15:27:50.075Z,1.80
2018-12-13T15:30:17.636Z,1.70
2018-12-13T15:32:45.732Z,1.70
2018-12-13T15:35:15.912Z,1.60
2018-12-13T15:37:43.438Z,1.70
2018-12-13T15:40:11.068Z,1.60
2018-12-13T15:42:38.619Z,1.50
2018-12-13T15:45:07.388Z,1.60
2018-12-13T15:47:34.947Z,1.60
2018-12-13T15:50:02.477Z,1.50
2018-12-13T15:52:30.052Z,1.50
2018-12-13T15:54:57.574Z,1.40
2018-12-13T15:57:25.135Z,1.40
2018-12-13T15:59:52.668Z,1.40
2018-12-13T16:02:20.239Z,1.40
2018-12-13T16:04:47.768Z,1.40
2018-12-13T16:07:21.473Z,1.50
2018-12-13T16:09:49.388Z,1.50
2018-12-13T16:12:17.811Z,1.50
2018-12-13T16:14:45.365Z,1.50
2018-12-13T16:17:12.940Z,1.60
2018-12-13T16:19:40.471Z,1.50
2018-12-13T16:22:08.128Z,1.60
2018-12-13T16:24:35.650Z,1.60
2018-12-13T16:27:03.198Z,1.50
2018-12-13T16:29:30.727Z,1.50
2018-12-13T16:31:58.287Z,1.50
2018-12-13T16:34:25.899Z,1.50
2018-12-13T16:36:53.452Z,1.60
2018-12-13T16:39:20.979Z,1.50
2018-12-13T16:41:48.535Z,1.50
2018-12-13T16:44:16.056Z,1.60
2018-12-13T16:46:43.611Z,1.60
2018-12-13T16:49:11.132Z,1.60
2018-12-13T16:51:38.691Z,1.60
2018-12-13T16:54:06.216Z,1.60
2018-12-13T16:56:33.950Z,1.50
2018-12-13T16:59:01.487Z,1.60
2018-12-13T17:01:29.041Z,1.50
2018-12-13T17:03:56.565Z,1.50
2018-12-13T17:06:24.115Z,1.40
2018-12-13T17:08:51.644Z,1.30
2018-12-13T17:11:19.470Z,1.30
2018-12-13T17:13:46.999Z,1.50
2018-12-13T17:16:14.551Z,1.50
2018-12-13T17:18:42.087Z,1.30
2018-12-13T17:21:09.608Z,1.40
2018-12-13T17:23:37.175Z,1.40
2018-12-13T17:26:04.704Z,1.40
2018-12-13T17:28:32.279Z,1.40
2018-12-13T17:30:59.807Z,1.40
2018-12-13T17:33:27.379Z,1.40
2018-12-13T17:35:55.387Z,1.40
2018-12-13T17:38:22.945Z,1.50
2018-12-13T17:40:50.480Z,1.50
2018-12-13T17:43:18.038Z,1.50
2018-12-13T17:45:45.620Z,1.60
2018-12-13T17:48:13.173Z,1.60
2018-12-13T17:50:40.707Z,1.60
2018-12-13T17:53:08.259Z,1.60
2018-12-13T17:55:35.785Z,1.50
2018-12-13T17:58:03.337Z,1.60
2018-12-13T18:00:30.864Z,1.60
2018-12-13T18:02:58.426Z,1.60
2018-12-13T18:05:25.944Z,1.70
2018-12-13T18:07:53.492Z,1.60
2018-12-13T18:10:21.024Z,1.60
2018-12-13T18:12:48.572Z,1.60
2018-12-13T18:15:16.099Z,1.50
2018-12-13T18:17:43.657Z,1.50
2018-12-13T18:20:11.256Z,1.60
2018-12-13T18:22:38.815Z,1.50
2018-12-13T18:25:06.490Z,1.50
2018-12-13T18:27:34.039Z,1.50
2018-12-13T18:30:01.564Z,1.50
2018-12-13T18:32:29.139Z,1.50
2018-12-13T18:34:56.672Z,1.60
2018-12-13T18:37:24.260Z,1.50
2018-12-13T18:39:51.795Z,1.50
2018-12-13T18:42:19.327Z,1.60
2018-12-13T18:44:46.889Z,1.60
2018-12-13T18:47:14.425Z,1.60
2018-12-13T18:49:41.985Z,1.60
2018-12-13T18:52:09.507Z,1.60
2018-12-13T18:54:37.064Z,1.60
2018-12-13T18:57:04.622Z,1.70
2018-12-13T18:59:32.179Z,1.70
2018-12-13T19:01:59.699Z,1.70
2018-12-13T19:04:27.256Z,1.60
2018-12-13T19:06:54.842Z,1.60
2018-12-13T19:09:22.490Z,1.60
2018-12-13T19:11:50.016Z,1.60
2018-12-13T19:14:17.720Z,1.60
2018-12-13T19:16:45.260Z,1.60
2018-12-13T19:19:12.816Z,1.50
2018-12-13T19:21:40.343Z,1.50
2018-12-13T19:24:07.886Z,1.60
2018-12-13T19:26:35.410Z,1.60
2018-12-13T19:29:02.964Z,1.60
2018-12-13T19:31:30.494Z,1.70
2018-12-13T19:33:58.048Z,1.70
2018-12-13T19:36:25.579Z,1.60
2018-12-13T19:38:53.137Z,1.60
2018-12-13T19:41:20.667Z,1.50
2018-12-13T19:43:48.222Z,1.50
2018-12-13T19:46:15.751Z,1.60
2018-12-13T19:48:43.303Z,1.60
2018-12-13T19:51:10.908Z,1.60
2018-12-13T19:53:38.463Z,1.70
2018-12-13T19:56:05.994Z,1.60
2018-12-13T19:58:33.550Z,1.60
2018-12-13T20:01:01.077Z,1.60
2018-12-13T20:03:28.604Z,1.50
2018-12-13T20:05:56.155Z,1.50
2018-12-13T20:08:23.680Z,1.60
2018-12-13T20:10:54.569Z,1.60
2018-12-13T20:13:20.791Z,1.50
2018-12-13T20:15:48.347Z,1.50
2018-12-13T20:18:15.926Z,1.50
2018-12-13T20:20:43.487Z,1.50
2018-12-13T20:23:11.151Z,1.50
2018-12-13T20:25:38.712Z,1.50
2018-12-13T20:28:06.240Z,1.50
2018-12-13T20:30:33.791Z,1.50
2018-12-13T20:33:01.322Z,1.50
2018-12-13T20:35:29.067Z,1.60
2018-12-13T20:37:56.591Z,1.60
2018-12-13T20:40:24.146Z,1.60
2018-12-13T20:42:51.675Z,1.60
2018-12-13T20:45:19.226Z,1.70
2018-12-13T20:47:46.754Z,1.70
2018-12-13T20:50:14.305Z,1.70
2018-12-13T20:52:41.833Z,1.70
2018-12-13T20:55:09.407Z,1.60
2018-12-13T20:57:36.940Z,1.60
2018-12-13T21:00:07.862Z,1.60
2018-12-13T21:02:35.475Z,1.50
2018-12-13T21:05:03.336Z,1.60
2018-12-13T21:07:33.465Z,1.70
2018-12-13T21:10:01.072Z,1.60
2018-12-13T21:12:28.805Z,1.60
2018-12-13T21:14:56.403Z,1.60
2018-12-13T21:17:23.954Z,1.70
2018-12-13T21:19:51.859Z,1.60
2018-12-13T21:22:19.771Z,1.60
2018-12-13T21:24:47.399Z,1.60
2018-12-13T21:27:14.952Z,1.60
2018-12-13T21:29:42.477Z,1.50
2018-12-13T21:32:10.036Z,1.50
2018-12-13T21:34:37.559Z,1.50
2018-12-13T21:37:05.194Z,1.60
2018-12-13T21:39:32.714Z,1.50
2018-12-13T21:42:00.358Z,1.40
2018-12-13T21:44:27.882Z,1.50
2018-12-13T21:46:55.434Z,1.50
2018-12-13T21:49:22.960Z,1.60
2018-12-13T21:51:50.515Z,1.60
2018-12-13T21:54:18.130Z,1.60
2018-12-13T21:56:45.861Z,1.60
2018-12-13T21:59:13.401Z,1.60
2018-12-13T22:01:40.973Z,1.60
2018-12-13T22:04:08.503Z,1.60
2018-12-13T22:06:36.057Z,1.60
2018-12-13T22:09:05.955Z,1.60
2018-12-13T22:11:33.551Z,1.50
2018-12-13T22:14:01.340Z,1.40
2018-12-13T22:16:28.895Z,1.50
2018-12-13T22:18:56.424Z,1.40
2018-12-13T22:21:23.983Z,1.40
2018-12-13T22:23:51.505Z,1.50
2018-12-13T22:26:19.058Z,1.50
2018-12-13T22:28:47.562Z,1.50
2018-12-13T22:31:15.116Z,1.50
2018-12-13T22:33:42.671Z,1.50
2018-12-13T22:36:10.199Z,1.40
2018-12-13T22:38:37.751Z,1.50
2018-12-13T22:41:05.355Z,1.50
2018-12-13T22:43:32.914Z,1.50
2018-12-13T22:46:02.428Z,1.60
2018-12-13T22:48:30.262Z,1.70
2018-12-13T22:50:57.783Z,1.60
2018-12-13T22:53:25.338Z,1.50
2018-12-13T22:55:52.868Z,1.60
2018-12-13T22:58:20.429Z,1.60
2018-12-13T23:00:48.033Z,1.60
2018-12-13T23:03:15.657Z,1.50
2018-12-13T23:05:43.178Z,1.40
2018-12-13T23:08:10.735Z,1.50
2018-12-13T23:10:38.261Z,1.60
2018-12-13T23:13:05.891Z,1.60
2018-12-13T23:15:33.492Z,1.60
2018-12-13T23:18:01.044Z,1.60
2018-12-13T23:20:28.579Z,1.50
2018-12-13T23:22:56.132Z,1.60
2018-12-13T23:25:23.669Z,1.60
2018-12-13T23:27:51.223Z,1.60
2018-12-13T23:30:18.752Z,1.60
2018-12-13T23:32:46.858Z,1.60
2018-12-13T23:35:14.517Z,1.40
2018-12-13T23:37:42.134Z,1.40
2018-12-13T23:40:09.659Z,1.50
2018-12-13T23:42:37.217Z,1.50
2018-12-13T23:45:04.991Z,1.50
2018-12-13T23:47:32.543Z,1.50
2018-12-13T23:50:00.068Z,1.50
2018-12-13T23:52:27.623Z,1.50
2018-12-13T23:54:55.144Z,1.50
2018-12-13T23:57:22.696Z,1.40
2018-12-13T23:59:51.320Z,1.50
